Time;durP1;ratioP1;P1;durP2;ratioP2;P2;SDS_P1;SDS_P2;PMS_P1;PMS_P2;Temp;Humidity;BMP_temperature;BMP_pressure;BME280_temperature;BME280_humidity;BME280_pressure;Samples;Min_cycle;Max_cycle;Signal;HPM_P1;HPM_P2
2021/03/28 00:00:20;;;;;;;2.58;0.88;;;9.90;59.10;;;;;;2365926;53;21501;-65
2021/03/28 00:02:51;;;;;;;3.03;0.98;;;9.80;59.90;;;;;;2366113;53;20917;-64
2021/03/28 00:05:31;;;;;;;2.58;0.77;;;9.80;60.20;;;;;;2602895;52;21848;-65
2021/03/28 00:08:01;;;;;;;3.00;0.93;;;9.70;60.00;;;;;;2593904;52;20926;-64
2021/03/28 00:10:44;;;;;;;2.80;0.80;;;9.60;60.30;;;;;;2349079;53;20945;-64
2021/03/28 00:13:25;;;;;;;2.10;0.88;;;9.60;60.00;;;;;;2344418;54;21463;-64
2021/03/28 00:16:02;;;;;;;4.07;1.00;;;9.60;60.10;;;;;;2357460;53;21854;-64
2021/03/28 00:20:35;;;;;;;2.65;0.90;;;9.50;60.10;;;;;;2338630;54;20991;-65
2021/03/28 00:23:10;;;;;;;1.83;0.85;;;9.40;59.30;;;;;;2365725;53;21469;-64
2021/03/28 00:26:01;;;;;;;3.47;0.90;;;9.40;60.40;;;;;;2365688;53;21553;-64
2021/03/28 00:28:40;;;;;;;3.12;0.98;;;9.40;60.30;;;;;;2366583;53;20917;-64
2021/03/28 00:31:27;;;;;;;3.90;0.95;;;9.30;60.20;;;;;;2349934;53;20906;-64
2021/03/28 00:34:23;;;;;;;2.00;0.70;;;9.30;60.60;;;;;;2610300;52;20970;-64
2021/03/28 00:37:02;;;;;;;2.65;0.70;;;9.20;60.00;;;;;;2356948;53;21465;-65
2021/03/28 00:39:53;;;;;;;2.35;1.00;;;9.20;60.40;;;;;;2616717;52;20929;-64
2021/03/28 00:42:49;;;;;;;3.17;0.90;;;9.10;60.10;;;;;;2617457;52;20973;-64
2021/03/28 00:45:33;;;;;;;4.35;0.90;;;9.10;60.40;;;;;;2322840;54;20953;-65
2021/03/28 00:48:10;;;;;;;3.33;0.80;;;9.10;60.50;;;;;;2342405;53;20928;-64
2021/03/28 00:50:41;;;;;;;3.03;0.82;;;9.00;60.60;;;;;;2343459;53;20940;-65
2021/03/28 00:53:10;;;;;;;4.95;1.00;;;9.00;60.90;;;;;;2342997;53;21499;-64
2021/03/28 00:55:54;;;;;;;3.97;1.10;;;8.90;60.90;;;;;;2342599;53;20992;-65
2021/03/28 00:58:24;;;;;;;4.00;1.30;;;8.90;60.80;;;;;;2589294;53;20929;-64
2021/03/28 01:02:29;;;;;;;5.15;1.42;;;8.90;61.00;;;;;;2342287;53;20936;-64
2021/03/28 01:05:45;;;;;;;3.25;0.95;;;8.90;60.00;;;;;;2343002;53;20956;-64
2021/03/28 01:08:35;;;;;;;3.83;1.00;;;8.90;60.30;;;;;;2343392;53;21242;-64
2021/03/28 01:17:11;;;;;;;3.90;0.90;;;8.80;60.60;;;;;;2342993;53;21004;-63
2021/03/28 01:21:16;;;;;;;2.60;0.90;;;8.80;60.10;;;;;;2589780;53;21552;-65
2021/03/28 01:23:46;;;;;;;5.07;1.12;;;8.70;60.30;;;;;;2342135;53;21057;-64
2021/03/28 01:27:09;;;;;;;2.62;0.88;;;8.70;61.40;;;;;;2342932;53;21571;-64
2021/03/28 01:30:09;;;;;;;3.95;0.90;;;8.70;60.60;;;;;;2341994;53;21370;-64
2021/03/28 01:34:44;;;;;;;2.60;0.95;;;8.60;61.20;;;;;;2342441;53;20932;-65
2021/03/28 01:37:13;;;;;;;3.40;0.95;;;8.60;60.50;;;;;;2343117;53;21051;-66
2021/03/28 01:40:27;;;;;;;2.78;0.73;;;8.60;61.60;;;;;;2342928;53;21003;-64
2021/03/28 01:45:48;;;;;;;3.12;1.00;;;8.60;61.70;;;;;;2324163;53;20993;-64
2021/03/28 01:49:20;;;;;;;4.00;1.05;;;8.50;61.10;;;;;;2343034;53;20977;-64
2021/03/28 01:51:59;;;;;;;3.40;0.85;;;8.50;60.80;;;;;;2342132;53;21034;-64
2021/03/28 01:54:39;;;;;;;2.78;0.80;;;8.50;61.70;;;;;;2324036;54;20953;-64
2021/03/28 01:57:22;;;;;;;4.18;1.00;;;8.50;61.70;;;;;;2588845;53;21004;-64
2021/03/28 02:02:01;;;;;;;2.65;0.85;;;8.40;61.80;;;;;;2588607;53;21066;-65
2021/03/28 02:04:44;;;;;;;3.55;0.82;;;8.40;61.40;;;;;;2345899;55;20996;-64
2021/03/28 02:07:35;;;;;;;2.80;0.90;;;8.40;61.70;;;;;;2338299;54;21042;-65
2021/03/28 02:10:45;;;;;;;4.28;0.85;;;8.30;62.20;;;;;;2343736;53;20973;-65
2021/03/28 02:13:41;;;;;;;1.98;0.60;;;8.30;61.10;;;;;;2367428;53;21010;-64
2021/03/28 02:16:57;;;;;;;4.25;0.88;;;8.30;61.40;;;;;;2346469;53;21560;-64
2021/03/28 02:19:34;;;;;;;2.12;0.62;;;8.20;61.40;;;;;;2366203;53;20969;-64
2021/03/28 02:22:23;;;;;;;2.90;0.75;;;8.20;61.50;;;;;;2359517;53;20959;-64
2021/03/28 02:25:53;;;;;;;3.00;0.90;;;8.10;61.20;;;;;;2367030;53;20890;-64
2021/03/28 02:28:29;;;;;;;3.47;1.27;;;8.10;61.20;;;;;;2617209;52;20981;-65
2021/03/28 02:31:10;;;;;;;4.43;1.27;;;8.00;61.30;;;;;;2350168;54;21049;-64
2021/03/28 02:34:04;;;;;;;7.05;2.87;;;8.00;61.40;;;;;;2366471;53;21027;-64
2021/03/28 02:39:25;;;;;;;9.82;3.97;;;7.90;61.00;;;;;;2561476;53;20932;-65
2021/03/28 02:42:30;;;;;;;8.00;2.80;;;7.80;60.40;;;;;;2563714;52;21438;-64
2021/03/28 02:45:30;;;;;;;7.25;2.67;;;7.70;60.90;;;;;;2588901;53;20949;-64
2021/03/28 02:48:40;;;;;;;7.85;2.00;;;7.60;60.80;;;;;;2322065;55;21335;-63
2021/03/28 02:54:13;;;;;;;3.97;1.60;;;7.60;61.10;;;;;;2342230;53;21019;-65
2021/03/28 03:03:45;;;;;;;3.70;0.80;;;7.50;60.70;;;;;;2360891;53;20989;-64
2021/03/28 03:12:38;;;;;;;1.15;0.57;;;7.40;61.40;;;;;;2357695;53;21425;-65
2021/03/28 03:15:44;;;;;;;2.35;0.80;;;7.30;62.10;;;;;;2616752;52;21576;-65
2021/03/28 03:20:56;;;;;;;3.60;0.90;;;7.30;62.30;;;;;;2365439;53;20906;-64
2021/03/28 03:25:33;;;;;;;3.42;0.90;;;7.20;62.40;;;;;;2366262;53;20909;-65
2021/03/28 03:28:26;;;;;;;3.55;0.90;;;7.20;62.20;;;;;;2365948;53;20890;-64
2021/03/28 03:32:17;;;;;;;3.60;1.00;;;7.10;62.30;;;;;;2366037;53;21743;-64
2021/03/28 03:34:59;;;;;;;5.15;1.17;;;7.00;61.60;;;;;;2366330;53;20914;-64
2021/03/28 03:38:02;;;;;;;1.52;0.65;;;7.00;62.20;;;;;;2361311;53;20926;-63
2021/03/28 03:40:41;;;;;;;2.65;0.70;;;7.00;62.30;;;;;;2361182;53;20937;-64
2021/03/28 03:46:04;;;;;;;3.87;1.00;;;6.90;62.40;;;;;;2617628;52;21036;-64
2021/03/28 03:51:19;;;;;;;1.95;0.70;;;6.90;62.30;;;;;;2617706;52;20905;-64
2021/03/28 03:53:59;;;;;;;2.92;1.00;;;6.80;61.60;;;;;;2366012;53;20946;-64
2021/03/28 03:59:13;;;;;;;4.57;1.10;;;6.70;62.30;;;;;;2367355;53;21144;-63
2021/03/28 04:02:38;;;;;;;4.78;2.28;;;6.70;62.40;;;;;;2617725;52;20906;-63
2021/03/28 04:05:28;;;;;;;4.32;1.80;;;6.60;62.00;;;;;;2561321;53;20952;-63
2021/03/28 04:08:19;;;;;;;5.00;2.33;;;6.60;62.40;;;;;;2342977;53;21012;-63
2021/03/28 04:12:42;;;;;;;5.62;1.60;;;6.50;62.40;;;;;;2338217;54;20960;-64
2021/03/28 04:15:17;;;;;;;4.35;1.17;;;6.50;62.70;;;;;;2342632;53;20953;-65
2021/03/28 04:20:06;;;;;;;3.87;1.10;;;6.50;63.40;;;;;;2586893;53;21092;-64
2021/03/28 04:24:21;;;;;;;4.57;1.33;;;6.50;63.10;;;;;;2347185;53;20945;-64
2021/03/28 04:28:42;;;;;;;2.37;1.00;;;6.50;63.80;;;;;;2365569;53;21449;-65
2021/03/28 04:32:57;;;;;;;2.08;0.73;;;6.60;64.10;;;;;;2366211;53;20921;-64
2021/03/28 04:36:13;;;;;;;;;;;6.60;64.50;;;;;;2369423;53;21864;-64
2021/03/28 04:39:17;;;;;;;3.28;1.00;;;6.70;63.10;;;;;;2368638;53;20065;-64
2021/03/28 04:43:13;;;;;;;;;;;6.70;63.60;;;;;;2364165;53;20955;-63
2021/03/28 04:47:26;;;;;;;3.62;1.02;;;6.60;62.80;;;;;;2600271;52;20234;-64
2021/03/28 04:50:17;;;;;;;4.07;1.00;;;6.60;63.30;;;;;;2365979;53;20989;-64
2021/03/28 04:58:07;;;;;;;2.62;0.80;;;6.60;63.40;;;;;;2613035;52;21442;-64
2021/03/28 05:04:29;;;;;;;3.03;1.20;;;6.50;62.80;;;;;;2611428;52;21009;-64
2021/03/28 05:20:30;;;;;;;3.92;1.40;;;6.50;63.30;;;;;;2360971;53;20925;-64
2021/03/28 05:23:19;;;;;;;3.62;0.77;;;6.40;62.70;;;;;;2589966;52;20954;-64
2021/03/28 05:26:22;;;;;;;4.45;1.00;;;6.30;63.50;;;;;;2348675;53;20919;-64
2021/03/28 05:28:54;;;;;;;;;;;6.30;63.40;;;;;;2348913;53;21402;-64
2021/03/28 05:38:03;;;;;;;2.17;1.10;;;6.30;62.80;;;;;;2359673;53;20647;-64
2021/03/28 05:42:21;;;;;;;2.30;0.90;;;6.20;62.80;;;;;;2363581;53;20893;-64
2021/03/28 05:45:25;;;;;;;2.90;1.30;;;6.10;62.90;;;;;;2593697;52;21030;-64
2021/03/28 05:48:24;;;;;;;4.05;1.30;;;6.10;63.60;;;;;;2365171;53;21705;-64
2021/03/28 05:57:26;;;;;;;3.78;1.35;;;6.10;63.80;;;;;;2615403;52;20926;-63
2021/03/28 06:00:08;;;;;;;3.47;1.20;;;6.00;63.80;;;;;;2353172;53;21419;-64
2021/03/28 06:06:53;;;;;;;5.18;1.40;;;6.00;64.10;;;;;;2359457;53;20898;-64
2021/03/28 06:12:31;;;;;;;5.40;1.20;;;6.00;63.70;;;;;;2365050;53;21720;-63
2021/03/28 06:15:28;;;;;;;5.53;2.28;;;6.10;63.80;;;;;;2349175;53;21756;-64
2021/03/28 06:18:22;;;;;;;4.78;1.42;;;6.10;64.50;;;;;;2363481;53;21727;-64
2021/03/28 06:21:35;;;;;;;2.83;1.12;;;6.10;64.60;;;;;;2616951;52;20890;-64
2021/03/28 06:25:00;;;;;;;2.67;1.12;;;6.10;64.60;;;;;;2367534;53;20949;-65
2021/03/28 06:28:04;;;;;;;5.25;1.20;;;6.10;64.50;;;;;;2608159;52;21697;-64
2021/03/28 06:36:06;;;;;;;3.25;1.30;;;6.10;64.90;;;;;;2365400;53;21292;-64
2021/03/28 06:43:41;;;;;;;2.85;1.30;;;6.20;64.50;;;;;;2364969;53;20917;-64
2021/03/28 06:46:18;;;;;;;2.67;1.20;;;6.50;66.10;;;;;;2613307;52;20961;-64
2021/03/28 06:49:26;;;;;;;3.42;1.15;;;6.80;69.00;;;;;;2336822;53;20998;-64
2021/03/28 06:53:31;;;;;;;2.70;1.12;;;7.10;68.80;;;;;;2354693;53;21485;-65
2021/03/28 06:56:33;;;;;;;3.20;1.30;;;7.30;69.40;;;;;;2616660;52;20918;-64
2021/03/28 07:06:01;;;;;;;3.85;1.10;;;7.60;68.90;;;;;;2361404;53;20981;-64
2021/03/28 07:08:54;;;;;;;2.55;0.98;;;8.10;67.80;;;;;;2614939;52;20989;-65
2021/03/28 07:11:50;;;;;;;4.70;1.12;;;8.20;68.60;;;;;;2364096;53;20970;-65
2021/03/28 07:16:26;;;;;;;4.57;1.30;;;8.30;68.80;;;;;;2560421;53;21849;-64
2021/03/28 07:24:17;;;;;;;2.83;1.15;;;8.50;68.60;;;;;;2364276;53;20925;-65
2021/03/28 07:28:35;;;;;;;5.40;0.93;;;8.90;67.50;;;;;;2607288;52;20991;-65
2021/03/28 07:31:38;;;;;;;2.83;1.00;;;9.00;67.50;;;;;;2367468;53;20953;-65
2021/03/28 07:39:50;;;;;;;4.90;1.00;;;9.10;68.50;;;;;;2364810;53;21612;-65
2021/03/28 07:42:42;;;;;;;2.75;0.80;;;9.40;68.10;;;;;;2365060;53;21001;-65
2021/03/28 07:51:05;;;;;;;3.10;1.10;;;9.70;69.50;;;;;;2615890;52;20902;-65
2021/03/28 07:56:56;;;;;;;5.53;1.00;;;10.10;67.90;;;;;;2616138;52;21514;-65
2021/03/28 08:02:42;;;;;;;3.10;0.80;;;10.50;68.30;;;;;;2615974;52;20938;-65
2021/03/28 08:06:16;;;;;;;3.15;0.80;;;11.00;67.90;;;;;;2313753;55;21015;-65
2021/03/28 08:09:15;;;;;;;2.50;1.00;;;11.20;68.40;;;;;;2588520;53;21941;-65
2021/03/28 08:12:02;;;;;;;5.70;1.08;;;11.30;68.30;;;;;;2345991;53;21044;-65
2021/03/28 08:14:58;;;;;;;4.22;1.12;;;11.50;69.10;;;;;;2589975;53;20964;-66
2021/03/28 08:18:01;;;;;;;4.20;1.30;;;11.70;71.20;;;;;;2344571;53;20976;-66
2021/03/28 08:20:52;;;;;;;3.03;1.08;;;12.10;71.90;;;;;;2590375;53;21781;-65
2021/03/28 08:26:14;;;;;;;5.65;1.40;;;12.50;73.30;;;;;;2343802;54;20983;-65
2021/03/28 08:35:35;;;;;;;2.25;0.75;;;13.20;72.40;;;;;;2583190;53;20988;-66
2021/03/28 08:38:42;;;;;;;3.40;0.85;;;14.10;76.50;;;;;;2342893;53;20996;-66
2021/03/28 08:44:51;;;;;;;3.33;1.00;;;15.80;73.40;;;;;;2323169;54;21044;-65
2021/03/28 08:48:02;;;;;;;5.00;1.12;;;16.90;71.40;;;;;;2581321;53;20951;-66
2021/03/28 08:50:40;;;;;;;3.47;1.10;;;17.30;71.00;;;;;;2581739;52;20959;-68
2021/03/28 08:54:39;;;;;;;4.75;1.17;;;17.70;71.60;;;;;;2338757;53;20896;-67
2021/03/28 09:05:09;;;;;;;4.80;0.90;;;18.10;70.50;;;;;;2564212;52;21724;-67
2021/03/28 09:07:41;;;;;;;3.78;0.98;;;19.20;68.80;;;;;;2327510;53;21002;-65
2021/03/28 09:11:55;;;;;;;3.08;1.00;;;20.00;72.20;;;;;;2335968;54;20929;-67
2021/03/28 09:16:07;;;;;;;4.45;1.42;;;20.40;68.90;;;;;;2339248;54;21006;-67
2021/03/28 09:18:48;;;;;;;3.60;1.15;;;21.00;67.90;;;;;;2618047;52;21261;-64
2021/03/28 09:23:38;;;;;;;3.10;1.00;;;21.50;66.70;;;;;;2610224;52;21054;-64
2021/03/28 09:31:21;;;;;;;4.32;1.17;;;21.80;63.80;;;;;;2617864;52;20937;-65
2021/03/28 09:33:55;;;;;;;3.25;0.85;;;22.50;63.60;;;;;;2618114;52;21731;-68
2021/03/28 09:36:49;;;;;;;3.83;1.00;;;22.60;66.30;;;;;;2594516;52;21810;-65
2021/03/28 09:39:38;;;;;;;4.75;1.33;;;22.80;62.80;;;;;;2327683;53;1381897;-67
2021/03/28 09:42:37;;;;;;;3.70;1.00;;;22.90;62.10;;;;;;2605723;52;21001;-68
2021/03/28 09:48:20;;;;;;;4.40;1.00;;;23.10;61.20;;;;;;2599529;52;21462;-67
2021/03/28 09:53:52;;;;;;;3.10;0.70;;;23.10;61.60;;;;;;2618153;52;21368;-65
2021/03/28 09:56:50;;;;;;;3.83;0.80;;;23.20;62.90;;;;;;2350245;53;20898;-64
2021/03/28 09:59:46;;;;;;;3.85;0.98;;;23.20;62.00;;;;;;2617530;52;20937;-65
2021/03/28 10:03:09;;;;;;;6.68;0.90;;;23.30;61.20;;;;;;2358378;53;21442;-65
2021/03/28 10:05:36;;;;;;;3.22;1.00;;;23.40;59.80;;;;;;2366924;53;20930;-66
2021/03/28 10:08:13;;;;;;;3.05;1.05;;;23.40;62.60;;;;;;2368814;53;20954;-67
2021/03/28 10:11:06;;;;;;;2.62;0.90;;;23.40;59.70;;;;;;2355518;53;20953;-67
2021/03/28 10:13:56;;;;;;;4.65;1.20;;;23.40;58.90;;;;;;2355903;53;20953;-68
2021/03/28 10:17:09;;;;;;;3.75;0.90;;;23.30;58.50;;;;;;2619254;52;20913;-69
2021/03/28 10:19:48;;;;;;;6.70;1.35;;;23.20;59.10;;;;;;2593810;52;20950;-68
2021/03/28 10:26:18;;;;;;;3.10;0.88;;;23.10;57.60;;;;;;2608481;52;20961;-68
2021/03/28 10:29:43;;;;;;;3.10;0.70;;;22.90;56.80;;;;;;2604058;52;20958;-66
2021/03/28 10:32:36;;;;;;;2.85;0.80;;;22.70;57.10;;;;;;2366999;53;20917;-66
2021/03/28 10:41:11;;;;;;;4.87;1.27;;;22.50;57.10;;;;;;2360285;53;21054;-66
2021/03/28 10:44:17;;;;;;;2.83;0.80;;;22.30;56.70;;;;;;2366638;53;21036;-67
2021/03/28 10:49:47;;;;;;;2.25;0.73;;;22.10;56.20;;;;;;2598568;52;20950;-66
2021/03/28 10:54:08;;;;;;;3.28;0.88;;;21.90;57.40;;;;;;2616484;52;20909;-66
2021/03/28 11:00:16;;;;;;;4.37;0.85;;;21.90;57.10;;;;;;2360855;53;21102;-68
2021/03/28 11:03:19;;;;;;;3.70;1.12;;;21.80;56.70;;;;;;2350961;53;21065;-68
2021/03/28 11:06:17;;;;;;;4.40;0.88;;;21.80;56.90;;;;;;2366937;53;20953;-67
2021/03/28 11:09:04;;;;;;;2.22;0.82;;;21.80;56.70;;;;;;2366898;53;21305;-68
2021/03/28 11:11:49;;;;;;;4.47;0.90;;;21.80;58.70;;;;;;2617528;52;20909;-66
2021/03/28 11:14:52;;;;;;;3.85;0.93;;;21.80;55.90;;;;;;2618336;52;20978;-68
2021/03/28 11:17:51;;;;;;;5.35;1.00;;;21.90;54.50;;;;;;2366842;53;20968;-67
2021/03/28 11:27:10;;;;;;;4.57;1.02;;;21.90;54.00;;;;;;2618224;52;20902;-68
2021/03/28 11:29:58;;;;;;;6.28;1.25;;;21.90;55.90;;;;;;2337872;54;20934;-64
2021/03/28 11:33:20;;;;;;;3.12;0.80;;;21.90;55.30;;;;;;2594492;52;20962;-66
2021/03/28 11:36:05;;;;;;;3.65;0.95;;;21.80;51.70;;;;;;2350161;53;20971;-64
2021/03/28 11:39:05;;;;;;;5.05;0.80;;;21.80;51.90;;;;;;2365625;53;20949;-64
2021/03/28 11:41:47;;;;;;;2.67;0.70;;;21.80;52.80;;;;;;2367379;53;20890;-64
2021/03/28 11:44:25;;;;;;;4.12;0.80;;;21.80;53.50;;;;;;2366972;53;20981;-65
2021/03/28 11:46:57;;;;;;;3.62;1.10;;;21.80;51.50;;;;;;2602908;52;20938;-65
2021/03/28 11:49:45;;;;;;;5.15;1.00;;;21.80;51.70;;;;;;2359640;53;21717;-63
2021/03/28 11:52:17;;;;;;;3.50;0.73;;;21.90;51.70;;;;;;2589717;53;21793;-64
2021/03/28 11:55:00;;;;;;;5.10;1.08;;;21.90;52.80;;;;;;2348029;53;20961;-65
2021/03/28 11:57:30;;;;;;;4.05;0.95;;;22.10;51.80;;;;;;2359572;53;21442;-64
2021/03/28 12:00:29;;;;;;;3.97;0.98;;;22.20;53.60;;;;;;2367016;53;20881;-64
2021/03/28 12:03:23;;;;;;;4.80;1.05;;;22.30;50.30;;;;;;2366644;53;21758;-64
2021/03/28 12:07:44;;;;;;;5.07;1.00;;;22.40;49.30;;;;;;2366697;53;20929;-65
2021/03/28 12:10:31;;;;;;;4.30;0.85;;;22.50;50.10;;;;;;2562516;53;21296;-65
2021/03/28 12:13:23;;;;;;;4.85;0.85;;;22.70;50.30;;;;;;2337431;54;21466;-65
2021/03/28 12:15:54;;;;;;;2.90;0.88;;;22.70;51.50;;;;;;2334428;54;20986;-64
2021/03/28 12:19:14;;;;;;;3.97;0.98;;;22.80;53.00;;;;;;2571991;52;20994;-64
2021/03/28 12:21:49;;;;;;;2.78;1.00;;;23.00;51.50;;;;;;2332286;54;21003;-64
2021/03/28 12:24:22;;;;;;;4.43;1.05;;;23.10;53.50;;;;;;2343879;53;20924;-65
2021/03/28 12:26:50;;;;;;;3.72;1.25;;;23.20;53.40;;;;;;2355087;53;20959;-66
2021/03/28 12:29:34;;;;;;;2.83;0.80;;;23.30;53.60;;;;;;2596707;52;20974;-64
2021/03/28 12:32:26;;;;;;;4.30;1.02;;;23.40;50.50;;;;;;2370639;53;21009;-65
2021/03/28 12:35:08;;;;;;;5.00;1.20;;;23.50;53.90;;;;;;2574643;52;21015;-65
2021/03/28 12:37:34;;;;;;;3.50;0.90;;;23.60;51.90;;;;;;2370058;53;21081;-63
2021/03/28 12:40:03;;;;;;;3.12;0.77;;;23.70;53.10;;;;;;2360311;53;20994;-63
2021/03/28 12:43:02;;;;;;;3.40;0.93;;;23.80;52.00;;;;;;2358279;53;21000;-63
2021/03/28 12:45:34;;;;;;;3.87;1.23;;;23.80;52.20;;;;;;2357575;54;21031;-61
2021/03/28 12:48:03;;;;;;;;;;;23.90;52.20;;;;;;2609503;52;20990;-64
2021/03/28 12:50:45;;;;;;;4.93;0.88;;;24.00;50.70;;;;;;2371111;53;20282;-63
2021/03/28 12:53:14;;;;;;;3.97;0.95;;;23.90;49.60;;;;;;2332334;54;20950;-65
2021/03/28 12:55:46;;;;;;;3.17;0.70;;;23.80;51.00;;;;;;2367973;53;20976;-66
2021/03/28 12:58:56;;;;;;;3.10;0.70;;;23.80;50.80;;;;;;2343590;53;20950;-66
2021/03/28 13:01:32;;;;;;;2.80;1.02;;;23.80;50.90;;;;;;2367813;53;21731;-65
2021/03/28 13:04:32;;;;;;;2.83;0.82;;;23.70;49.30;;;;;;2623451;52;20962;-65
2021/03/28 13:06:58;;;;;;;3.12;0.80;;;23.70;47.90;;;;;;2367773;53;21055;-66
2021/03/28 13:09:31;;;;;;;3.67;1.10;;;23.70;50.80;;;;;;2358941;53;20950;-65
2021/03/28 13:12:21;;;;;;;3.25;1.20;;;23.70;48.10;;;;;;2371523;53;21021;-63
2021/03/28 13:14:49;;;;;;;3.72;1.15;;;23.60;46.00;;;;;;2348632;53;20962;-64
2021/03/28 13:17:38;;;;;;;5.10;1.08;;;23.60;47.90;;;;;;2353700;53;21061;-66
2021/03/28 13:20:25;;;;;;;2.62;0.70;;;23.50;46.10;;;;;;2354368;53;20974;-63
2021/03/28 13:22:51;;;;;;;3.87;1.10;;;23.50;46.10;;;;;;2594658;52;20919;-65
2021/03/28 13:25:30;;;;;;;2.40;0.88;;;23.40;46.30;;;;;;2624326;52;21430;-64
2021/03/28 13:28:39;;;;;;;4.75;1.02;;;23.30;45.80;;;;;;2371226;53;21919;-65
2021/03/28 13:33:42;;;;;;;5.18;0.80;;;23.20;44.70;;;;;;2371549;53;21818;-65
2021/03/28 13:36:30;;;;;;;3.00;0.73;;;23.00;45.40;;;;;;2614923;52;20959;-64
2021/03/28 13:39:13;;;;;;;2.65;0.80;;;23.00;47.20;;;;;;2363734;53;20942;-64
2021/03/28 13:41:45;;;;;;;2.92;0.70;;;22.90;46.60;;;;;;2371131;53;20997;-64
2021/03/28 13:44:29;;;;;;;3.47;0.80;;;22.90;48.40;;;;;;2596269;52;21084;-65
2021/03/28 13:47:00;;;;;;;4.12;0.85;;;22.90;45.70;;;;;;2358779;53;21005;-65
2021/03/28 13:49:47;;;;;;;2.85;1.00;;;22.80;46.80;;;;;;2623934;52;20878;-65
2021/03/28 13:52:27;;;;;;;5.95;1.35;;;22.80;45.10;;;;;;2605472;52;20928;-64
2021/03/28 13:55:10;;;;;;;2.67;0.82;;;22.70;44.20;;;;;;2586444;52;20934;-65
2021/03/28 13:57:43;;;;;;;3.00;1.00;;;22.60;44.30;;;;;;2370899;53;21021;-64
2021/03/28 14:00:54;;;;;;;4.35;1.02;;;22.50;45.30;;;;;;2371495;53;20906;-65
2021/03/28 14:03:39;;;;;;;4.03;0.95;;;22.50;44.50;;;;;;2371191;53;20898;-65
2021/03/28 14:07:49;;;;;;;3.35;1.00;;;22.50;44.20;;;;;;2370529;53;20938;-63
2021/03/28 14:11:01;;;;;;;6.32;1.10;;;22.40;45.20;;;;;;2623411;52;20926;-63
2021/03/28 14:13:33;;;;;;;4.07;1.10;;;22.40;45.90;;;;;;2374595;53;20946;-64
2021/03/28 14:16:19;;;;;;;5.60;1.00;;;22.40;46.50;;;;;;2352693;53;20995;-64
2021/03/28 14:18:48;;;;;;;4.18;1.00;;;22.40;45.30;;;;;;2370098;53;20917;-63
2021/03/28 14:21:33;;;;;;;4.57;1.20;;;22.40;46.80;;;;;;2372995;53;21005;-64
2021/03/28 14:25:59;;;;;;;5.45;1.20;;;22.40;43.50;;;;;;2356229;53;21474;-65
2021/03/28 14:28:40;;;;;;;6.47;1.40;;;22.30;44.30;;;;;;2371220;53;21375;-64
2021/03/28 14:31:49;;;;;;;4.30;0.82;;;22.20;45.10;;;;;;2374567;53;20946;-65
2021/03/28 14:37:30;;;;;;;2.78;0.62;;;22.20;43.20;;;;;;2606980;52;20938;-65
2021/03/28 14:40:29;;;;;;;4.70;1.10;;;22.20;45.30;;;;;;2371005;53;20930;-65
2021/03/28 14:45:57;;;;;;;3.10;1.00;;;22.20;44.00;;;;;;2365563;53;20907;-65
2021/03/28 14:50:15;;;;;;;2.95;0.93;;;22.10;44.90;;;;;;2371275;53;20938;-64
2021/03/28 14:54:34;;;;;;;3.42;1.00;;;22.20;44.80;;;;;;2371400;53;20918;-64
2021/03/28 14:57:08;;;;;;;3.45;0.80;;;22.20;45.20;;;;;;2589797;53;20988;-64
2021/03/28 14:59:55;;;;;;;2.58;0.98;;;22.10;46.50;;;;;;2342830;53;20964;-65
2021/03/28 15:04:01;;;;;;;4.47;1.00;;;22.20;47.30;;;;;;2589967;53;20937;-63
2021/03/28 15:06:52;;;;;;;3.40;0.82;;;22.20;46.80;;;;;;2347087;53;21027;-63
2021/03/28 15:09:42;;;;;;;3.87;1.05;;;22.30;45.70;;;;;;2573086;53;20921;-64
2021/03/28 15:12:26;;;;;;;4.30;1.20;;;22.20;45.00;;;;;;2342014;53;20924;-63
2021/03/28 15:16:34;;;;;;;3.62;0.90;;;22.20;44.30;;;;;;2567908;53;20959;-64
2021/03/28 15:19:23;;;;;;;3.17;0.93;;;22.10;44.10;;;;;;2341265;54;21102;-64
2021/03/28 15:22:10;;;;;;;3.17;0.80;;;22.10;44.80;;;;;;2354580;53;20897;-63
2021/03/28 15:25:03;;;;;;;3.30;1.10;;;22.00;45.00;;;;;;2366890;53;20885;-63
2021/03/28 15:27:48;;;;;;;3.08;0.77;;;21.90;44.30;;;;;;2363255;53;20990;-64
2021/03/28 15:30:31;;;;;;;5.25;0.95;;;21.90;44.20;;;;;;2339307;53;21053;-65
2021/03/28 15:33:33;;;;;;;5.68;1.08;;;21.80;44.20;;;;;;2368554;53;21042;-64
2021/03/28 15:39:29;;;;;;;3.28;0.90;;;21.70;43.00;;;;;;2618787;52;21041;-64
2021/03/28 15:42:22;;;;;;;3.00;0.93;;;21.70;43.10;;;;;;2371969;53;21424;-64
2021/03/28 15:45:07;;;;;;;2.33;0.70;;;21.50;43.40;;;;;;2617565;52;21741;-65
2021/03/28 15:52:59;;;;;;;4.12;0.98;;;21.30;43.40;;;;;;2365437;53;21799;-64
2021/03/28 15:57:08;;;;;;;3.95;0.88;;;21.30;43.30;;;;;;2584077;53;20982;-64
2021/03/28 16:01:17;;;;;;;3.30;1.10;;;21.10;43.70;;;;;;2619218;52;20966;-64
2021/03/28 16:06:39;;;;;;;4.03;1.10;;;21.00;43.50;;;;;;2351061;53;21063;-64
2021/03/28 16:10:55;;;;;;;3.03;0.80;;;20.90;43.10;;;;;;2353984;53;21001;-63
2021/03/28 16:13:55;;;;;;;2.15;0.85;;;20.80;43.70;;;;;;2367790;53;20962;-63
2021/03/28 16:16:38;;;;;;;4.80;1.12;;;20.80;45.10;;;;;;2357228;53;20989;-63
2021/03/28 16:19:26;;;;;;;2.22;0.62;;;20.80;45.30;;;;;;2366866;53;20924;-66
2021/03/28 16:24:32;;;;;;;3.75;0.70;;;20.70;45.00;;;;;;2350236;54;20950;-65
2021/03/28 16:34:07;;;;;;;2.72;0.93;;;20.70;44.60;;;;;;2617723;52;20906;-63
2021/03/28 16:38:27;;;;;;;3.28;0.70;;;20.60;44.70;;;;;;2369970;53;21287;-65
2021/03/28 16:41:00;;;;;;;4.47;1.67;;;20.40;46.90;;;;;;2350541;54;21036;-65
2021/03/28 16:43:47;;;;;;;2.87;1.02;;;20.30;46.50;;;;;;2369562;53;20961;-65
2021/03/28 16:46:21;;;;;;;4.87;1.30;;;20.20;45.40;;;;;;2367185;53;20973;-64
2021/03/28 16:48:57;;;;;;;3.20;1.08;;;20.10;46.30;;;;;;2366817;53;21001;-66
2021/03/28 16:51:39;;;;;;;3.45;1.00;;;20.10;46.30;;;;;;2359081;53;21093;-65
2021/03/28 16:54:24;;;;;;;2.83;0.80;;;20.00;45.50;;;;;;2353832;53;21341;-65
2021/03/28 16:57:09;;;;;;;3.20;0.70;;;19.90;45.50;;;;;;2367381;53;21659;-65
2021/03/28 16:59:47;;;;;;;1.98;0.80;;;19.80;45.40;;;;;;2351559;53;20946;-65
2021/03/28 17:02:33;;;;;;;2.12;0.80;;;19.80;46.40;;;;;;2367906;53;21488;-66
2021/03/28 17:05:33;;;;;;;2.42;0.82;;;19.70;45.50;;;;;;2372644;53;21393;-66
2021/03/28 17:08:11;;;;;;;2.17;0.82;;;19.70;45.60;;;;;;2342669;54;21015;-66
2021/03/28 17:10:49;;;;;;;2.37;0.77;;;19.60;46.80;;;;;;2605667;52;21024;-65
2021/03/28 17:13:32;;;;;;;3.80;1.10;;;19.60;47.70;;;;;;2369276;53;21012;-65
2021/03/28 17:16:31;;;;;;;2.40;0.90;;;19.60;46.50;;;;;;2350523;53;21798;-64
2021/03/28 17:20:23;;;;;;;2.75;1.08;;;19.60;46.60;;;;;;2358704;53;20942;-66
2021/03/28 17:23:01;;;;;;;4.50;0.98;;;19.50;46.60;;;;;;2612646;52;21056;-65
2021/03/28 17:25:47;;;;;;;2.95;1.05;;;19.50;48.30;;;;;;2357998;53;20962;-65
2021/03/28 17:28:20;;;;;;;4.25;1.10;;;19.50;47.90;;;;;;2362040;53;21029;-65
2021/03/28 17:30:56;;;;;;;2.83;1.55;;;19.40;48.60;;;;;;2617623;52;20911;-65
2021/03/28 17:34:01;;;;;;;4.20;1.70;;;19.40;48.60;;;;;;2617569;52;20881;-67
2021/03/28 17:36:31;;;;;;;6.80;1.50;;;19.30;47.50;;;;;;2354201;53;20902;-66
2021/03/28 17:40:38;;;;;;;3.28;1.20;;;19.20;49.00;;;;;;2365827;53;20917;-66
2021/03/28 17:43:05;;;;;;;3.20;1.05;;;19.10;47.80;;;;;;2366035;53;20998;-65
2021/03/28 17:45:42;;;;;;;2.30;0.90;;;19.00;49.10;;;;;;2350134;53;21016;-65
2021/03/28 17:51:45;;;;;;;3.85;1.30;;;18.80;48.20;;;;;;2350980;53;20960;-67
2021/03/28 17:54:28;;;;;;;3.17;0.90;;;18.60;47.90;;;;;;2590097;53;20956;-66
2021/03/28 17:56:55;;;;;;;2.00;0.80;;;18.40;48.20;;;;;;2589018;53;21738;-67
2021/03/28 17:59:35;;;;;;;2.30;0.70;;;18.20;49.10;;;;;;2573295;53;21006;-67
2021/03/28 18:02:04;;;;;;;2.72;0.93;;;18.00;48.40;;;;;;2338807;53;21788;-69
2021/03/28 18:04:34;;;;;;;2.70;0.88;;;17.90;49.20;;;;;;2589190;53;21016;-67
2021/03/28 18:07:03;;;;;;;8.32;4.00;;;17.70;49.00;;;;;;2602379;52;20955;-66
2021/03/28 18:09:45;;;;;;;4.47;2.22;;;17.60;49.20;;;;;;2610739;52;21752;-66
2021/03/28 18:12:20;;;;;;;4.15;2.00;;;17.50;49.20;;;;;;2351030;53;21480;-67
2021/03/28 18:14:46;;;;;;;6.55;3.75;;;17.30;49.10;;;;;;2562099;53;20937;-67
2021/03/28 18:17:15;;;;;;;6.35;2.40;;;17.20;49.50;;;;;;2358060;53;21049;-66
2021/03/28 18:19:41;;;;;;;5.03;1.95;;;17.00;49.50;;;;;;2611542;52;21419;-67
2021/03/28 18:22:10;;;;;;;3.90;1.95;;;16.90;49.60;;;;;;2344744;53;21000;-67
2021/03/28 18:24:43;;;;;;;3.42;1.27;;;16.80;49.60;;;;;;2594236;52;21047;-66
2021/03/28 18:27:28;;;;;;;3.53;1.00;;;16.70;49.60;;;;;;2348431;53;20992;-67
2021/03/28 18:30:09;;;;;;;2.22;0.90;;;16.60;49.70;;;;;;2370358;53;22054;-66
2021/03/28 18:32:47;;;;;;;2.15;0.75;;;16.50;49.90;;;;;;2324272;54;20992;-65
2021/03/28 18:35:46;;;;;;;2.67;0.90;;;16.40;50.10;;;;;;2584787;53;21009;-66
2021/03/28 18:38:37;;;;;;;1.50;0.70;;;16.30;49.20;;;;;;2340792;53;21095;-66
2021/03/28 18:41:14;;;;;;;2.15;0.80;;;16.10;49.10;;;;;;2588792;53;20939;-67
2021/03/28 18:43:41;;;;;;;2.60;0.80;;;16.00;50.10;;;;;;2343366;53;21000;-66
2021/03/28 18:46:18;;;;;;;2.35;0.93;;;16.00;50.40;;;;;;2589471;53;20972;-65
2021/03/28 18:48:50;;;;;;;3.00;0.90;;;15.90;50.10;;;;;;2347411;53;21073;-66